Red Ranger, Texas
Current Conditions -  °F | °C
As of 10:15 PM on Sunday 23 Nov 2014 (Local Time) from KT35 Reporting Station
Clear Clear  
Wind Chill: 59°   Ceiling: Unl
Heat Index: 59°   Visibility: 10mi
Dew Point: 42°   Wind: 17mph
Humidity: 53%   Direction: 340°NNW
Pressure: 29.78"   Gusts: 25mph
Location:  30.9683°N, 97.2213°W
Report Text: KT35 240415Z AUTO 34015G22KT 10SM CLR 15/06 A2978 RMK AO2 T01500056
Loading
Personal Weather Stations






























Interactive Weather Map New forecast layout! Learn more

10-Day Weather Forecast

Advertisements
Track Severe Weather on mobile